KAGS/AGS METAR and TAF weather

Enter ICAO airport designator
Station Type Date Time Source
KAGS METAR 2021/04/14 18:53 UTC NOAA

KAGS 141853Z 19010G18KT 10SM FEW090 BKN120 31/09 A2997 RMK AO2 SLP146 T03110094


Station Type Date Time Source
KAGS Decoded METAR 2021/04/14 18:53 UTC NOAA

AUGUSTA BUSH FIELD, GA, United States (KAGS) 33-22N 081-58W 44M
Apr 14, 2021 - 02:53 PM EDT / 2021.04.14 1853 UTC
Wind: from the S (190 degrees) at 12 MPH (10 KT) gusting to 21 MPH (18 KT):0
Visibility: 10 mile(s):0
Sky conditions: mostly cloudy
Temperature: 88.0 F (31.1 C)
Dew Point: 48.9 F (9.4 C)
Relative Humidity: 26%
Pressure (altimeter): 29.97 in. Hg (1014 hPa)
ob: KAGS 141853Z 19010G18KT 10SM FEW090 BKN120 31/09 A2997 RMK AO2 SLP146 T03110094
cycle: 19

Station Type Date Time Source
KAGS TAF 2021/04/14 18:36 UTC NOAA

TAF KAGS 141733Z 1418/1518 20010G16KT P6SM BKN120
FM150000 25012KT P6SM BKN080
FM150500 28008KT P6SM BKN050
FM151300 29008KT P6SM BKN015

Example: see airport list